Karina — SY6847 — position and weather

sailwx.info

Track history (hours):
 
Tides and Currents Weather Stations Pressure Air Temp Water Temp Dewpoint Dewpoint Depression Visibility Wind Speed Wind Dir Waves Ship Positions

Karina

Last reported at 2018-May-18 16:53 UTC. Time now 2018-Jun-25 01:45 UTC.
Position N 37°52' E 023°45'.
Warning: this ship's position is 37 days out of date.

Length 15 m; draft 1.4 m.

Type: Pleasure craft. MMSI: 237963600.

Date/timePositionNaut miles runAvg speedWind from/ knotsBaromVisibWave heightAir tempDewpointWater temp
2018-May-18 16:53N 37°52' E 023°45'6 1.1
2018-May-18 11:33N 37°55' E 023°40'1 1.4
2018-May-18 11:07N 37°56' E 023°39'0 0.0
2018-May-18 10:59N 37°56' E 023°39'0 0.0
2018-May-18 10:30N 37°56' E 023°39'0 0.0
2018-May-18 10:00N 37°56' E 023°39'0 0.0
2018-May-18 09:31N 37°56' E 023°39'0 0.0
2018-May-18 09:01N 37°56' E 023°39'0 0.0
2018-May-18 08:30N 37°56' E 023°39'0 0.0
2018-May-17 07:57N 37°56' E 023°39'1 0.0
2018-May-15 08:28N 37°55' E 023°38'3 5.5
2018-May-15 08:00N 37°57' E 023°35'1 0.4
2018-May-15 05:11N 37°58' E 023°34'0 0.0
2018-May-15 05:00N 37°58' E 023°34'0 0.0
2018-May-15 04:26N 37°58' E 023°34'0 0.0
2018-May-15 03:35N 37°58' E 023°34'0 0.0
2018-May-15 03:16N 37°58' E 023°34'0 0.0
2018-May-15 03:00N 37°58' E 023°34'0 0.0
2018-May-14 11:47N 37°58' E 023°34'0 0.0
2018-May-14 11:25N 37°58' E 023°34'0 0.0
2018-May-14 10:32N 37°58' E 023°34'0 0.0
2018-May-14 10:27N 37°58' E 023°34'0 0.0
2018-May-14 09:57N 37°58' E 023°34'0 0.0
2018-May-14 09:29N 37°58' E 023°34'0 0.0
2018-May-14 08:51N 37°58' E 023°34'0 0.0
2018-May-14 08:30N 37°58' E 023°34'0 0.0
2018-May-14 07:58N 37°58' E 023°34'0 0.0
2018-May-14 07:30N 37°58' E 023°34'0 0.0
2018-May-14 06:55N 37°58' E 023°34'0 0.0
2018-May-14 05:54N 37°58' E 023°34'0 0.0
2018-May-14 05:30N 37°58' E 023°34'0 0.0
2018-May-14 04:57N 37°58' E 023°34'0 0.0
2018-May-14 04:30N 37°58' E 023°34'0 0.0
2018-May-14 03:59N 37°58' E 023°34'0 0.0
2018-May-13 18:32N 37°58' E 023°34'0 0.0
2018-May-13 18:28N 37°58' E 023°34'0 0.0
2018-May-13 18:00N 37°58' E 023°34'0 0.0
2018-May-13 17:30N 37°58' E 023°34'0 0.0
2018-May-13 16:59N 37°58' E 023°34'0 0.0
2018-May-13 16:30N 37°58' E 023°34'0 0.0
2018-May-13 16:00N 37°58' E 023°34'0 0.0
2018-May-13 15:30N 37°58' E 023°34'0 0.0
2018-May-13 02:36N 37°58' E 023°34'0 0.0
2018-May-13 02:29N 37°58' E 023°34'0 0.0
2018-May-13 02:01N 37°58' E 023°34'0 0.0
2018-May-13 01:31N 37°58' E 023°34'0 0.0
2018-May-13 00:39N 37°58' E 023°34'0 0.0
2018-May-12 20:39N 37°58' E 023°34'0 0.0
2018-May-12 20:30N 37°58' E 023°34'0 0.0
2018-May-12 18:16N 37°58' E 023°34'0 0.0
2018-May-12 11:39N 37°58' E 023°34'0 0.0
2018-May-12 11:29N 37°58' E 023°34'1 1.1
2018-May-12 11:00N 37°57' E 023°34'1 1.0
2018-May-12 10:30N 37°58' E 023°34'0 0.0
2018-May-12 10:00N 37°58' E 023°34'0 0.0
2018-May-12 06:00N 37°58' E 023°34'0 0.0
2018-May-12 05:30N 37°58' E 023°34'0 0.0
2018-May-12 05:00N 37°58' E 023°34'0 0.0
2018-May-12 04:30N 37°58' E 023°34'0 0.0
2018-May-12 03:57N 37°58' E 023°34'0 0.0
2018-May-12 03:30N 37°58' E 023°34'0 0.0
2018-May-12 03:00N 37°58' E 023°34'0 0.0
2018-May-12 02:30N 37°58' E 023°34'0 0.0
2018-May-12 01:47N 37°58' E 023°34'0 0.0
2018-May-11 21:27N 37°58' E 023°34'0 0.0
2018-May-11 18:43N 37°58' E 023°34'  
2018-May-08 23:35N 37°58' E 023°34'0 0.0
2018-May-08 23:29N 37°58' E 023°34'0 0.0
2018-May-08 22:59N 37°58' E 023°34'0 0.0
2018-May-08 20:44N 37°58' E 023°34'0 0.0
2018-May-08 20:22N 37°58' E 023°34'  
Track history (hours):
 
Tides and Currents Weather Stations Pressure Air Temp Water Temp Dewpoint Dewpoint Depression Visibility Wind Speed Wind Dir Waves Ship Positions

Karina

Last reported at 2018-May-18 16:53 UTC. Time now 2018-Jun-25 01:45 UTC.
Position N 37°52' E 023°45'.
Warning: this ship's position is 37 days out of date.

Length 15 m; draft 1.4 m.

Type: Pleasure craft. MMSI: 237963600.

Date/timePositionNaut miles runAvg speedWind from/ knotsBaromVisibWave heightAir tempDewpointWater temp
2018-May-18 16:53N 37°52' E 023°45'6 1.1
2018-May-18 11:33N 37°55' E 023°40'1 1.4
2018-May-18 11:07N 37°56' E 023°39'0 0.0
2018-May-18 10:59N 37°56' E 023°39'0 0.0
2018-May-18 10:30N 37°56' E 023°39'0 0.0
2018-May-18 10:00N 37°56' E 023°39'0 0.0
2018-May-18 09:31N 37°56' E 023°39'0 0.0
2018-May-18 09:01N 37°56' E 023°39'0 0.0
2018-May-18 08:30N 37°56' E 023°39'0 0.0
2018-May-17 07:57N 37°56' E 023°39'1 0.0
2018-May-15 08:28N 37°55' E 023°38'3 5.5
2018-May-15 08:00N 37°57' E 023°35'1 0.4
2018-May-15 05:11N 37°58' E 023°34'0 0.0
2018-May-15 05:00N 37°58' E 023°34'0 0.0
2018-May-15 04:26N 37°58' E 023°34'0 0.0
2018-May-15 03:35N 37°58' E 023°34'0 0.0
2018-May-15 03:16N 37°58' E 023°34'0 0.0
2018-May-15 03:00N 37°58' E 023°34'0 0.0
2018-May-14 11:47N 37°58' E 023°34'0 0.0
2018-May-14 11:25N 37°58' E 023°34'0 0.0
2018-May-14 10:32N 37°58' E 023°34'0 0.0
2018-May-14 10:27N 37°58' E 023°34'0 0.0
2018-May-14 09:57N 37°58' E 023°34'0 0.0
2018-May-14 09:29N 37°58' E 023°34'0 0.0
2018-May-14 08:51N 37°58' E 023°34'0 0.0
2018-May-14 08:30N 37°58' E 023°34'0 0.0
2018-May-14 07:58N 37°58' E 023°34'0 0.0
2018-May-14 07:30N 37°58' E 023°34'0 0.0
2018-May-14 06:55N 37°58' E 023°34'0 0.0
2018-May-14 05:54N 37°58' E 023°34'0 0.0
2018-May-14 05:30N 37°58' E 023°34'0 0.0
2018-May-14 04:57N 37°58' E 023°34'0 0.0
2018-May-14 04:30N 37°58' E 023°34'0 0.0
2018-May-14 03:59N 37°58' E 023°34'0 0.0
2018-May-13 18:32N 37°58' E 023°34'0 0.0
2018-May-13 18:28N 37°58' E 023°34'0 0.0
2018-May-13 18:00N 37°58' E 023°34'0 0.0
2018-May-13 17:30N 37°58' E 023°34'0 0.0
2018-May-13 16:59N 37°58' E 023°34'0 0.0
2018-May-13 16:30N 37°58' E 023°34'0 0.0
2018-May-13 16:00N 37°58' E 023°34'0 0.0
2018-May-13 15:30N 37°58' E 023°34'0 0.0
2018-May-13 02:36N 37°58' E 023°34'0 0.0
2018-May-13 02:29N 37°58' E 023°34'0 0.0
2018-May-13 02:01N 37°58' E 023°34'0 0.0
2018-May-13 01:31N 37°58' E 023°34'0 0.0
2018-May-13 00:39N 37°58' E 023°34'0 0.0
2018-May-12 20:39N 37°58' E 023°34'0 0.0
2018-May-12 20:30N 37°58' E 023°34'0 0.0
2018-May-12 18:16N 37°58' E 023°34'0 0.0
2018-May-12 11:39N 37°58' E 023°34'0 0.0
2018-May-12 11:29N 37°58' E 023°34'1 1.1
2018-May-12 11:00N 37°57' E 023°34'1 1.0
2018-May-12 10:30N 37°58' E 023°34'0 0.0
2018-May-12 10:00N 37°58' E 023°34'0 0.0
2018-May-12 06:00N 37°58' E 023°34'0 0.0
2018-May-12 05:30N 37°58' E 023°34'0 0.0
2018-May-12 05:00N 37°58' E 023°34'0 0.0
2018-May-12 04:30N 37°58' E 023°34'0 0.0
2018-May-12 03:57N 37°58' E 023°34'0 0.0
2018-May-12 03:30N 37°58' E 023°34'0 0.0
2018-May-12 03:00N 37°58' E 023°34'0 0.0
2018-May-12 02:30N 37°58' E 023°34'0 0.0
2018-May-12 01:47N 37°58' E 023°34'0 0.0
2018-May-11 21:27N 37°58' E 023°34'0 0.0
2018-May-11 18:43N 37°58' E 023°34'  
2018-May-08 23:35N 37°58' E 023°34'0 0.0
2018-May-08 23:29N 37°58' E 023°34'0 0.0
2018-May-08 22:59N 37°58' E 023°34'0 0.0
2018-May-08 20:44N 37°58' E 023°34'0 0.0
2018-May-08 20:22N 37°58' E 023°34'  

Dump ship's entire track history